Safe, Missouri
Current Conditions -  °F | °C
As of 6:53 AM on Friday 31 Oct 2014 (Local Time) from KVIH Reporting Station
Overcast Overcast  
Wind Chill: 39°   Ceiling: 2700
Heat Index: 45°   Visibility: 10mi
Dew Point: 40°   Wind: 14mph
Humidity: 82%   Direction: 350°N
Pressure: 30.19"   Gusts: NA
Location:  37.9936°N, 91.5964°W
Report Text: KVIH 311153Z AUTO 35012KT 10SM BKN027 OVC060 07/04 A3019 RMK AO2 SLP225 70018 T00720044 10078 20061 51026
Loading
Personal Weather Stations






























Interactive Weather Map
Tropical Storm Tracking
New forecast layout! Learn more

10-Day Weather Forecast

Advertisements
Track Severe Weather on mobile